Terminal Aerodrome Forecast
Issued by NWS Sterling, VA

Current Version | Previous Version | Text Only | Print | Product List | Glossary Off
Versions: 1 2 3 4 5 6 7 8 9 10 11 12 13 14 15 16 17 18 19 20 21 22 23 24 25 26 27 28 29

000
FTUS41 KLWX 010902 AAA
TAFDCA
TAF AMD
KDCA 010902Z 0109/0206 VRB03KT P6SM OVC080
     FM011300 VRB03KT 3SM -SN BR SCT030 OVC070
     FM011500 18005KT 2SM -FZRASNPL BR BKN015 OVC030
     FM011800 17006KT 5SM -FZRA BR BKN009 OVC020
     FM020000 18007KT 3SM BR SCT009 BKN015 OVC035=

USA.gov is the U.S. government's official web portal to all federal, state and local government web resources and services.